sensor_id;sensor_type;location;lat;lon;timestamp;P1;durP1;ratioP1;P2;durP2;ratioP2
49590;SDS011;35496;-21.974;-46.800;2023-04-24T00:01:23;4.93;;;3.95;;
49590;SDS011;35496;-21.974;-46.800;2023-04-24T00:03:49;6.80;;;5.00;;
49590;SDS011;35496;-21.974;-46.800;2023-04-24T00:06:15;8.18;;;6.60;;
49590;SDS011;35496;-21.974;-46.800;2023-04-24T00:08:42;10.45;;;8.98;;
49590;SDS011;35496;-21.974;-46.800;2023-04-24T00:11:08;10.23;;;8.80;;
49590;SDS011;35496;-21.974;-46.800;2023-04-24T00:13:35;12.07;;;9.02;;
49590;SDS011;35496;-21.974;-46.800;2023-04-24T00:16:01;14.00;;;9.07;;
49590;SDS011;35496;-21.974;-46.800;2023-04-24T00:18:27;9.50;;;7.38;;
49590;SDS011;35496;-21.974;-46.800;2023-04-24T00:20:53;9.48;;;7.15;;
49590;SDS011;35496;-21.974;-46.800;2023-04-24T00:23:19;10.70;;;7.85;;
49590;SDS011;35496;-21.974;-46.800;2023-04-24T00:25:45;7.82;;;6.15;;
49590;SDS011;35496;-21.974;-46.800;2023-04-24T00:28:11;12.35;;;9.07;;
49590;SDS011;35496;-21.974;-46.800;2023-04-24T00:30:37;14.95;;;7.90;;
49590;SDS011;35496;-21.974;-46.800;2023-04-24T00:33:03;12.00;;;7.10;;
49590;SDS011;35496;-21.974;-46.800;2023-04-24T00:35:29;7.93;;;6.80;;
49590;SDS011;35496;-21.974;-46.800;2023-04-24T00:37:55;10.70;;;6.25;;
49590;SDS011;35496;-21.974;-46.800;2023-04-24T00:40:21;9.05;;;6.30;;
49590;SDS011;35496;-21.974;-46.800;2023-04-24T00:42:47;10.90;;;5.63;;
49590;SDS011;35496;-21.974;-46.800;2023-04-24T00:45:13;6.45;;;4.50;;
49590;SDS011;35496;-21.974;-46.800;2023-04-24T00:47:39;6.93;;;4.90;;
49590;SDS011;35496;-21.974;-46.800;2023-04-24T00:50:06;7.97;;;3.45;;
49590;SDS011;35496;-21.974;-46.800;2023-04-24T00:52:33;4.63;;;3.00;;
49590;SDS011;35496;-21.974;-46.800;2023-04-24T00:54:59;8.38;;;2.90;;
49590;SDS011;35496;-21.974;-46.800;2023-04-24T00:57:25;3.75;;;2.90;;
49590;SDS011;35496;-21.974;-46.800;2023-04-24T00:59:52;3.83;;;2.45;;
49590;SDS011;35496;-21.974;-46.800;2023-04-24T01:02:18;3.78;;;2.42;;
49590;SDS011;35496;-21.974;-46.800;2023-04-24T01:04:45;4.78;;;2.10;;
49590;SDS011;35496;-21.974;-46.800;2023-04-24T01:07:11;6.15;;;2.58;;
49590;SDS011;35496;-21.974;-46.800;2023-04-24T01:09:38;10.00;;;1.95;;
49590;SDS011;35496;-21.974;-46.800;2023-04-24T01:12:06;3.28;;;1.50;;
49590;SDS011;35496;-21.974;-46.800;2023-04-24T01:14:32;2.65;;;1.40;;
49590;SDS011;35496;-21.974;-46.800;2023-04-24T01:16:59;5.55;;;2.05;;
49590;SDS011;35496;-21.974;-46.800;2023-04-24T01:19:25;4.22;;;2.20;;
49590;SDS011;35496;-21.974;-46.800;2023-04-24T01:21:52;4.97;;;2.55;;
49590;SDS011;35496;-21.974;-46.800;2023-04-24T01:24:19;4.38;;;3.22;;
49590;SDS011;35496;-21.974;-46.800;2023-04-24T01:26:45;6.68;;;3.65;;
49590;SDS011;35496;-21.974;-46.800;2023-04-24T01:29:11;4.95;;;2.92;;
49590;SDS011;35496;-21.974;-46.800;2023-04-24T01:31:38;4.97;;;3.80;;
49590;SDS011;35496;-21.974;-46.800;2023-04-24T01:34:05;4.63;;;2.75;;
49590;SDS011;35496;-21.974;-46.800;2023-04-24T01:36:31;6.80;;;3.40;;
49590;SDS011;35496;-21.974;-46.800;2023-04-24T01:38:58;5.45;;;3.03;;
49590;SDS011;35496;-21.974;-46.800;2023-04-24T01:41:24;8.25;;;3.42;;
49590;SDS011;35496;-21.974;-46.800;2023-04-24T01:43:50;4.82;;;3.25;;
49590;SDS011;35496;-21.974;-46.800;2023-04-24T01:46:17;5.47;;;3.72;;
49590;SDS011;35496;-21.974;-46.800;2023-04-24T01:48:44;9.27;;;4.82;;
49590;SDS011;35496;-21.974;-46.800;2023-04-24T01:51:10;7.35;;;4.25;;
49590;SDS011;35496;-21.974;-46.800;2023-04-24T01:53:36;5.32;;;3.85;;
49590;SDS011;35496;-21.974;-46.800;2023-04-24T01:56:02;17.10;;;5.38;;
49590;SDS011;35496;-21.974;-46.800;2023-04-24T01:58:28;6.38;;;3.53;;
49590;SDS011;35496;-21.974;-46.800;2023-04-24T02:00:56;5.63;;;3.60;;
49590;SDS011;35496;-21.974;-46.800;2023-04-24T02:03:22;4.05;;;3.38;;
49590;SDS011;35496;-21.974;-46.800;2023-04-24T02:05:48;4.60;;;3.10;;
49590;SDS011;35496;-21.974;-46.800;2023-04-24T02:08:14;4.95;;;2.75;;
49590;SDS011;35496;-21.974;-46.800;2023-04-24T02:10:40;8.02;;;4.53;;
49590;SDS011;35496;-21.974;-46.800;2023-04-24T02:13:06;5.88;;;4.40;;
49590;SDS011;35496;-21.974;-46.800;2023-04-24T02:15:32;6.57;;;4.70;;
49590;SDS011;35496;-21.974;-46.800;2023-04-24T02:17:58;8.10;;;4.60;;
49590;SDS011;35496;-21.974;-46.800;2023-04-24T02:20:24;4.82;;;4.32;;
49590;SDS011;35496;-21.974;-46.800;2023-04-24T02:22:50;9.00;;;5.50;;
49590;SDS011;35496;-21.974;-46.800;2023-04-24T02:25:17;5.80;;;5.25;;
49590;SDS011;35496;-21.974;-46.800;2023-04-24T02:27:43;8.73;;;4.50;;
49590;SDS011;35496;-21.974;-46.800;2023-04-24T02:30:09;3.40;;;2.47;;
49590;SDS011;35496;-21.974;-46.800;2023-04-24T02:32:35;3.88;;;2.40;;
49590;SDS011;35496;-21.974;-46.800;2023-04-24T02:35:01;3.22;;;2.10;;
49590;SDS011;35496;-21.974;-46.800;2023-04-24T02:37:27;3.83;;;2.50;;
49590;SDS011;35496;-21.974;-46.800;2023-04-24T02:39:53;3.80;;;2.13;;
49590;SDS011;35496;-21.974;-46.800;2023-04-24T02:42:20;4.38;;;2.78;;
49590;SDS011;35496;-21.974;-46.800;2023-04-24T02:44:46;5.82;;;2.78;;
49590;SDS011;35496;-21.974;-46.800;2023-04-24T02:47:12;3.63;;;2.25;;
49590;SDS011;35496;-21.974;-46.800;2023-04-24T02:49:38;5.18;;;3.25;;
49590;SDS011;35496;-21.974;-46.800;2023-04-24T02:52:05;4.57;;;3.38;;
49590;SDS011;35496;-21.974;-46.800;2023-04-24T02:54:31;5.55;;;3.63;;
49590;SDS011;35496;-21.974;-46.800;2023-04-24T02:56:57;6.80;;;3.88;;
49590;SDS011;35496;-21.974;-46.800;2023-04-24T02:59:23;11.27;;;6.07;;
49590;SDS011;35496;-21.974;-46.800;2023-04-24T03:01:50;7.43;;;5.38;;
49590;SDS011;35496;-21.974;-46.800;2023-04-24T03:04:16;9.07;;;5.82;;
49590;SDS011;35496;-21.974;-46.800;2023-04-24T03:06:45;6.43;;;3.35;;
49590;SDS011;35496;-21.974;-46.800;2023-04-24T03:09:11;4.47;;;3.67;;
49590;SDS011;35496;-21.974;-46.800;2023-04-24T03:11:37;5.07;;;3.58;;
49590;SDS011;35496;-21.974;-46.800;2023-04-24T03:14:03;5.95;;;3.28;;
49590;SDS011;35496;-21.974;-46.800;2023-04-24T03:16:29;4.20;;;3.47;;
49590;SDS011;35496;-21.974;-46.800;2023-04-24T03:18:56;4.82;;;4.22;;
49590;SDS011;35496;-21.974;-46.800;2023-04-24T03:21:22;3.78;;;2.67;;
49590;SDS011;35496;-21.974;-46.800;2023-04-24T03:23:48;5.68;;;3.40;;
49590;SDS011;35496;-21.974;-46.800;2023-04-24T03:26:14;10.45;;;3.47;;
49590;SDS011;35496;-21.974;-46.800;2023-04-24T03:28:40;2.38;;;2.17;;
49590;SDS011;35496;-21.974;-46.800;2023-04-24T03:31:06;2.95;;;2.63;;
49590;SDS011;35496;-21.974;-46.800;2023-04-24T03:33:32;5.38;;;2.50;;
49590;SDS011;35496;-21.974;-46.800;2023-04-24T03:35:58;5.00;;;2.92;;
49590;SDS011;35496;-21.974;-46.800;2023-04-24T03:38:25;5.25;;;3.35;;
49590;SDS011;35496;-21.974;-46.800;2023-04-24T03:40:51;5.85;;;2.45;;
49590;SDS011;35496;-21.974;-46.800;2023-04-24T03:43:17;3.63;;;2.25;;
49590;SDS011;35496;-21.974;-46.800;2023-04-24T03:45:43;4.82;;;1.90;;
49590;SDS011;35496;-21.974;-46.800;2023-04-24T03:48:09;6.40;;;2.70;;
49590;SDS011;35496;-21.974;-46.800;2023-04-24T03:50:35;3.25;;;1.95;;
49590;SDS011;35496;-21.974;-46.800;2023-04-24T03:53:01;4.05;;;1.67;;
49590;SDS011;35496;-21.974;-46.800;2023-04-24T03:55:27;8.77;;;2.35;;
49590;SDS011;35496;-21.974;-46.800;2023-04-24T03:57:53;5.57;;;2.28;;
49590;SDS011;35496;-21.974;-46.800;2023-04-24T04:00:19;8.25;;;2.60;;
49590;SDS011;35496;-21.974;-46.800;2023-04-24T04:02:46;9.05;;;3.28;;
49590;SDS011;35496;-21.974;-46.800;2023-04-24T04:05:12;3.85;;;2.55;;
49590;SDS011;35496;-21.974;-46.800;2023-04-24T04:07:38;4.07;;;2.13;;
49590;SDS011;35496;-21.974;-46.800;2023-04-24T04:10:04;5.72;;;2.33;;
49590;SDS011;35496;-21.974;-46.800;2023-04-24T04:12:32;8.45;;;3.10;;
49590;SDS011;35496;-21.974;-46.800;2023-04-24T04:14:58;7.68;;;2.95;;
49590;SDS011;35496;-21.974;-46.800;2023-04-24T04:17:24;3.33;;;2.58;;
49590;SDS011;35496;-21.974;-46.800;2023-04-24T04:19:50;16.80;;;2.17;;
49590;SDS011;35496;-21.974;-46.800;2023-04-24T04:22:16;10.75;;;2.22;;
49590;SDS011;35496;-21.974;-46.800;2023-04-24T04:24:42;3.03;;;2.13;;
49590;SDS011;35496;-21.974;-46.800;2023-04-24T04:27:08;3.08;;;1.90;;
49590;SDS011;35496;-21.974;-46.800;2023-04-24T04:29:34;6.60;;;3.10;;
49590;SDS011;35496;-21.974;-46.800;2023-04-24T04:32:01;5.82;;;1.60;;
49590;SDS011;35496;-21.974;-46.800;2023-04-24T04:34:27;4.93;;;1.67;;
49590;SDS011;35496;-21.974;-46.800;2023-04-24T04:36:55;10.38;;;1.98;;
49590;SDS011;35496;-21.974;-46.800;2023-04-24T04:39:21;5.22;;;1.40;;
49590;SDS011;35496;-21.974;-46.800;2023-04-24T04:41:47;5.30;;;2.15;;
49590;SDS011;35496;-21.974;-46.800;2023-04-24T04:44:14;4.63;;;3.05;;
49590;SDS011;35496;-21.974;-46.800;2023-04-24T04:46:40;5.53;;;2.00;;
49590;SDS011;35496;-21.974;-46.800;2023-04-24T04:49:07;3.97;;;2.30;;
49590;SDS011;35496;-21.974;-46.800;2023-04-24T04:51:34;4.45;;;2.17;;
49590;SDS011;35496;-21.974;-46.800;2023-04-24T04:54:00;3.65;;;1.70;;
49590;SDS011;35496;-21.974;-46.800;2023-04-24T04:56:26;9.90;;;2.00;;
49590;SDS011;35496;-21.974;-46.800;2023-04-24T04:58:52;4.25;;;2.05;;
49590;SDS011;35496;-21.974;-46.800;2023-04-24T05:01:18;4.45;;;2.47;;
49590;SDS011;35496;-21.974;-46.800;2023-04-24T05:03:44;5.32;;;1.92;;
49590;SDS011;35496;-21.974;-46.800;2023-04-24T05:06:10;4.10;;;2.15;;
49590;SDS011;35496;-21.974;-46.800;2023-04-24T05:08:36;2.65;;;1.27;;
49590;SDS011;35496;-21.974;-46.800;2023-04-24T05:11:02;7.05;;;2.45;;
49590;SDS011;35496;-21.974;-46.800;2023-04-24T05:13:28;3.20;;;2.53;;
49590;SDS011;35496;-21.974;-46.800;2023-04-24T05:15:54;5.28;;;2.17;;
49590;SDS011;35496;-21.974;-46.800;2023-04-24T05:18:21;3.42;;;2.00;;
49590;SDS011;35496;-21.974;-46.800;2023-04-24T05:20:47;4.55;;;1.88;;
49590;SDS011;35496;-21.974;-46.800;2023-04-24T05:23:13;6.93;;;2.65;;
49590;SDS011;35496;-21.974;-46.800;2023-04-24T05:25:39;3.35;;;1.92;;
49590;SDS011;35496;-21.974;-46.800;2023-04-24T05:28:06;3.85;;;1.92;;
49590;SDS011;35496;-21.974;-46.800;2023-04-24T05:30:32;5.03;;;2.47;;
49590;SDS011;35496;-21.974;-46.800;2023-04-24T05:32:58;1.95;;;1.48;;
49590;SDS011;35496;-21.974;-46.800;2023-04-24T05:35:24;2.15;;;1.63;;
49590;SDS011;35496;-21.974;-46.800;2023-04-24T05:37:50;4.55;;;1.77;;
49590;SDS011;35496;-21.974;-46.800;2023-04-24T05:40:16;2.28;;;1.20;;
49590;SDS011;35496;-21.974;-46.800;2023-04-24T05:42:43;6.32;;;2.58;;
49590;SDS011;35496;-21.974;-46.800;2023-04-24T05:45:09;4.38;;;2.42;;
49590;SDS011;35496;-21.974;-46.800;2023-04-24T05:47:40;3.42;;;1.73;;
49590;SDS011;35496;-21.974;-46.800;2023-04-24T05:50:06;3.83;;;2.10;;
49590;SDS011;35496;-21.974;-46.800;2023-04-24T05:52:32;4.07;;;2.35;;
49590;SDS011;35496;-21.974;-46.800;2023-04-24T05:54:58;10.35;;;2.35;;
49590;SDS011;35496;-21.974;-46.800;2023-04-24T05:57:24;3.20;;;1.73;;
49590;SDS011;35496;-21.974;-46.800;2023-04-24T05:59:50;2.97;;;1.38;;
49590;SDS011;35496;-21.974;-46.800;2023-04-24T06:02:16;1.70;;;1.40;;
49590;SDS011;35496;-21.974;-46.800;2023-04-24T06:04:42;3.33;;;1.77;;
49590;SDS011;35496;-21.974;-46.800;2023-04-24T06:07:10;4.07;;;2.33;;
49590;SDS011;35496;-21.974;-46.800;2023-04-24T06:09:36;3.75;;;2.15;;
49590;SDS011;35496;-21.974;-46.800;2023-04-24T06:12:02;5.90;;;2.78;;
49590;SDS011;35496;-21.974;-46.800;2023-04-24T06:14:28;3.97;;;1.67;;
49590;SDS011;35496;-21.974;-46.800;2023-04-24T06:16:55;2.35;;;1.52;;
49590;SDS011;35496;-21.974;-46.800;2023-04-24T06:19:21;4.05;;;1.85;;
49590;SDS011;35496;-21.974;-46.800;2023-04-24T06:21:47;4.05;;;1.83;;
49590;SDS011;35496;-21.974;-46.800;2023-04-24T06:24:14;4.20;;;1.60;;
49590;SDS011;35496;-21.974;-46.800;2023-04-24T06:26:41;2.63;;;1.10;;
49590;SDS011;35496;-21.974;-46.800;2023-04-24T06:29:07;4.07;;;1.45;;
49590;SDS011;35496;-21.974;-46.800;2023-04-24T06:31:33;6.18;;;1.83;;
49590;SDS011;35496;-21.974;-46.800;2023-04-24T06:34:02;2.95;;;1.90;;
49590;SDS011;35496;-21.974;-46.800;2023-04-24T06:36:28;3.15;;;1.45;;
49590;SDS011;35496;-21.974;-46.800;2023-04-24T06:38:54;10.18;;;1.95;;
49590;SDS011;35496;-21.974;-46.800;2023-04-24T06:41:20;3.38;;;1.33;;
49590;SDS011;35496;-21.974;-46.800;2023-04-24T06:43:46;5.13;;;1.48;;
49590;SDS011;35496;-21.974;-46.800;2023-04-24T06:46:13;6.82;;;1.80;;
49590;SDS011;35496;-21.974;-46.800;2023-04-24T06:48:39;3.47;;;2.20;;
49590;SDS011;35496;-21.974;-46.800;2023-04-24T06:51:05;3.28;;;1.50;;
49590;SDS011;35496;-21.974;-46.800;2023-04-24T06:53:31;2.78;;;1.70;;
49590;SDS011;35496;-21.974;-46.800;2023-04-24T06:55:57;4.30;;;1.15;;
49590;SDS011;35496;-21.974;-46.800;2023-04-24T06:58:24;2.25;;;1.45;;
49590;SDS011;35496;-21.974;-46.800;2023-04-24T07:00:50;3.90;;;1.45;;
49590;SDS011;35496;-21.974;-46.800;2023-04-24T07:03:16;6.50;;;2.33;;
49590;SDS011;35496;-21.974;-46.800;2023-04-24T07:05:42;4.47;;;2.08;;
49590;SDS011;35496;-21.974;-46.800;2023-04-24T07:08:08;6.43;;;3.72;;
49590;SDS011;35496;-21.974;-46.800;2023-04-24T07:10:36;4.50;;;2.08;;
49590;SDS011;35496;-21.974;-46.800;2023-04-24T07:13:02;3.75;;;1.90;;
49590;SDS011;35496;-21.974;-46.800;2023-04-24T07:15:29;6.68;;;2.13;;
49590;SDS011;35496;-21.974;-46.800;2023-04-24T07:17:55;4.60;;;2.42;;
49590;SDS011;35496;-21.974;-46.800;2023-04-24T07:20:21;4.70;;;2.97;;
49590;SDS011;35496;-21.974;-46.800;2023-04-24T07:22:47;4.22;;;2.83;;
49590;SDS011;35496;-21.974;-46.800;2023-04-24T07:25:14;5.38;;;2.22;;
49590;SDS011;35496;-21.974;-46.800;2023-04-24T07:27:40;6.55;;;1.42;;
49590;SDS011;35496;-21.974;-46.800;2023-04-24T07:30:06;1.90;;;1.63;;
49590;SDS011;35496;-21.974;-46.800;2023-04-24T07:32:32;5.05;;;1.45;;
49590;SDS011;35496;-21.974;-46.800;2023-04-24T07:34:59;2.00;;;1.63;;
49590;SDS011;35496;-21.974;-46.800;2023-04-24T07:37:25;4.78;;;1.80;;
49590;SDS011;35496;-21.974;-46.800;2023-04-24T07:39:51;2.75;;;1.85;;
49590;SDS011;35496;-21.974;-46.800;2023-04-24T07:42:17;4.68;;;1.92;;
49590;SDS011;35496;-21.974;-46.800;2023-04-24T07:44:43;3.60;;;1.70;;
49590;SDS011;35496;-21.974;-46.800;2023-04-24T07:47:09;2.72;;;1.58;;
49590;SDS011;35496;-21.974;-46.800;2023-04-24T07:49:36;7.05;;;2.08;;
49590;SDS011;35496;-21.974;-46.800;2023-04-24T07:52:02;7.07;;;2.03;;
49590;SDS011;35496;-21.974;-46.800;2023-04-24T07:54:28;5.03;;;2.08;;
49590;SDS011;35496;-21.974;-46.800;2023-04-24T07:56:54;3.78;;;1.75;;
49590;SDS011;35496;-21.974;-46.800;2023-04-24T07:59:20;2.38;;;1.40;;
49590;SDS011;35496;-21.974;-46.800;2023-04-24T08:01:46;2.10;;;1.58;;
49590;SDS011;35496;-21.974;-46.800;2023-04-24T08:04:12;4.40;;;1.90;;
49590;SDS011;35496;-21.974;-46.800;2023-04-24T08:06:39;1.20;;;1.02;;
49590;SDS011;35496;-21.974;-46.800;2023-04-24T08:09:05;2.78;;;1.30;;
49590;SDS011;35496;-21.974;-46.800;2023-04-24T08:11:31;6.60;;;2.72;;
49590;SDS011;35496;-21.974;-46.800;2023-04-24T08:13:58;3.40;;;1.98;;
49590;SDS011;35496;-21.974;-46.800;2023-04-24T08:16:24;5.30;;;2.35;;
49590;SDS011;35496;-21.974;-46.800;2023-04-24T08:18:50;2.05;;;1.13;;
49590;SDS011;35496;-21.974;-46.800;2023-04-24T08:21:16;3.97;;;2.30;;
49590;SDS011;35496;-21.974;-46.800;2023-04-24T08:23:44;2.25;;;1.67;;
49590;SDS011;35496;-21.974;-46.800;2023-04-24T08:26:11;1.52;;;1.23;;
49590;SDS011;35496;-21.974;-46.800;2023-04-24T08:28:37;2.80;;;1.83;;
49590;SDS011;35496;-21.974;-46.800;2023-04-24T08:31:03;2.13;;;1.73;;
49590;SDS011;35496;-21.974;-46.800;2023-04-24T08:33:29;5.85;;;1.70;;
49590;SDS011;35496;-21.974;-46.800;2023-04-24T08:36:01;3.63;;;2.13;;
49590;SDS011;35496;-21.974;-46.800;2023-04-24T08:38:27;4.40;;;2.75;;
49590;SDS011;35496;-21.974;-46.800;2023-04-24T08:40:53;2.95;;;1.35;;
49590;SDS011;35496;-21.974;-46.800;2023-04-24T08:43:21;7.65;;;2.05;;
49590;SDS011;35496;-21.974;-46.800;2023-04-24T08:45:48;2.67;;;1.55;;
49590;SDS011;35496;-21.974;-46.800;2023-04-24T08:48:14;2.60;;;1.48;;
49590;SDS011;35496;-21.974;-46.800;2023-04-24T08:50:41;2.72;;;1.88;;
49590;SDS011;35496;-21.974;-46.800;2023-04-24T08:53:08;2.47;;;1.63;;
49590;SDS011;35496;-21.974;-46.800;2023-04-24T08:55:34;2.47;;;2.28;;
49590;SDS011;35496;-21.974;-46.800;2023-04-24T08:58:01;3.30;;;1.58;;
49590;SDS011;35496;-21.974;-46.800;2023-04-24T09:00:28;5.00;;;2.10;;
49590;SDS011;35496;-21.974;-46.800;2023-04-24T09:02:55;2.28;;;1.85;;
49590;SDS011;35496;-21.974;-46.800;2023-04-24T09:05:21;1.98;;;1.88;;
49590;SDS011;35496;-21.974;-46.800;2023-04-24T09:07:55;4.18;;;1.63;;
49590;SDS011;35496;-21.974;-46.800;2023-04-24T09:10:22;2.28;;;1.90;;
49590;SDS011;35496;-21.974;-46.800;2023-04-24T09:12:49;3.85;;;2.03;;
49590;SDS011;35496;-21.974;-46.800;2023-04-24T09:15:16;6.25;;;1.80;;
49590;SDS011;35496;-21.974;-46.800;2023-04-24T09:17:42;3.80;;;1.55;;
49590;SDS011;35496;-21.974;-46.800;2023-04-24T09:20:08;3.55;;;2.20;;
49590;SDS011;35496;-21.974;-46.800;2023-04-24T09:22:35;4.93;;;1.80;;
49590;SDS011;35496;-21.974;-46.800;2023-04-24T09:25:03;2.45;;;1.92;;
49590;SDS011;35496;-21.974;-46.800;2023-04-24T09:27:31;2.70;;;2.20;;
49590;SDS011;35496;-21.974;-46.800;2023-04-24T09:29:57;3.78;;;2.95;;
49590;SDS011;35496;-21.974;-46.800;2023-04-24T09:32:23;7.10;;;4.38;;
49590;SDS011;35496;-21.974;-46.800;2023-04-24T09:35:07;4.60;;;3.10;;
49590;SDS011;35496;-21.974;-46.800;2023-04-24T09:37:37;4.07;;;2.97;;
49590;SDS011;35496;-21.974;-46.800;2023-04-24T09:40:16;6.75;;;3.55;;
49590;SDS011;35496;-21.974;-46.800;2023-04-24T09:45:11;3.40;;;1.70;;
49590;SDS011;35496;-21.974;-46.800;2023-04-24T09:47:38;3.83;;;2.58;;
49590;SDS011;35496;-21.974;-46.800;2023-04-24T09:50:14;4.45;;;1.90;;
49590;SDS011;35496;-21.974;-46.800;2023-04-24T09:52:44;5.20;;;1.70;;
49590;SDS011;35496;-21.974;-46.800;2023-04-24T09:55:20;2.65;;;2.45;;
49590;SDS011;35496;-21.974;-46.800;2023-04-24T09:57:53;3.95;;;2.22;;
49590;SDS011;35496;-21.974;-46.800;2023-04-24T10:00:23;2.53;;;2.33;;
49590;SDS011;35496;-21.974;-46.800;2023-04-24T10:02:51;7.68;;;2.25;;
49590;SDS011;35496;-21.974;-46.800;2023-04-24T10:05:17;2.72;;;2.30;;
49590;SDS011;35496;-21.974;-46.800;2023-04-24T10:07:43;4.78;;;2.88;;
49590;SDS011;35496;-21.974;-46.800;2023-04-24T10:10:10;4.07;;;2.53;;
49590;SDS011;35496;-21.974;-46.800;2023-04-24T10:12:36;4.70;;;2.72;;
49590;SDS011;35496;-21.974;-46.800;2023-04-24T10:15:03;4.40;;;3.17;;
49590;SDS011;35496;-21.974;-46.800;2023-04-24T10:17:31;7.20;;;2.83;;
49590;SDS011;35496;-21.974;-46.800;2023-04-24T10:19:57;2.67;;;2.38;;
49590;SDS011;35496;-21.974;-46.800;2023-04-24T10:22:23;4.10;;;1.80;;
49590;SDS011;35496;-21.974;-46.800;2023-04-24T10:24:50;5.50;;;2.25;;
49590;SDS011;35496;-21.974;-46.800;2023-04-24T10:27:17;5.88;;;2.50;;
49590;SDS011;35496;-21.974;-46.800;2023-04-24T10:29:43;4.20;;;2.17;;
49590;SDS011;35496;-21.974;-46.800;2023-04-24T10:32:11;2.67;;;1.95;;
49590;SDS011;35496;-21.974;-46.800;2023-04-24T10:34:37;5.53;;;2.35;;
49590;SDS011;35496;-21.974;-46.800;2023-04-24T10:37:03;7.78;;;2.38;;
49590;SDS011;35496;-21.974;-46.800;2023-04-24T10:39:29;4.25;;;1.85;;
49590;SDS011;35496;-21.974;-46.800;2023-04-24T10:41:56;3.53;;;2.28;;
49590;SDS011;35496;-21.974;-46.800;2023-04-24T10:44:23;5.30;;;2.17;;
49590;SDS011;35496;-21.974;-46.800;2023-04-24T10:46:52;4.47;;;1.70;;
49590;SDS011;35496;-21.974;-46.800;2023-04-24T10:49:27;9.98;;;2.90;;
49590;SDS011;35496;-21.974;-46.800;2023-04-24T10:51:53;2.85;;;2.03;;
49590;SDS011;35496;-21.974;-46.800;2023-04-24T10:54:36;4.40;;;2.33;;
49590;SDS011;35496;-21.974;-46.800;2023-04-24T10:59:51;3.65;;;2.15;;
49590;SDS011;35496;-21.974;-46.800;2023-04-24T11:02:38;3.00;;;2.08;;
49590;SDS011;35496;-21.974;-46.800;2023-04-24T11:05:06;3.38;;;1.90;;
49590;SDS011;35496;-21.974;-46.800;2023-04-24T11:10:26;2.13;;;1.40;;
49590;SDS011;35496;-21.974;-46.800;2023-04-24T11:12:52;2.90;;;1.42;;
49590;SDS011;35496;-21.974;-46.800;2023-04-24T11:15:18;7.00;;;1.85;;
49590;SDS011;35496;-21.974;-46.800;2023-04-24T11:17:45;1.77;;;1.30;;
49590;SDS011;35496;-21.974;-46.800;2023-04-24T11:20:11;2.63;;;1.40;;
49590;SDS011;35496;-21.974;-46.800;2023-04-24T11:22:42;2.67;;;1.70;;
49590;SDS011;35496;-21.974;-46.800;2023-04-24T11:25:08;2.03;;;1.23;;
49590;SDS011;35496;-21.974;-46.800;2023-04-24T11:27:43;2.72;;;1.55;;
49590;SDS011;35496;-21.974;-46.800;2023-04-24T11:30:11;4.30;;;1.15;;
49590;SDS011;35496;-21.974;-46.800;2023-04-24T11:32:38;4.60;;;1.55;;
49590;SDS011;35496;-21.974;-46.800;2023-04-24T11:35:05;2.58;;;1.13;;
49590;SDS011;35496;-21.974;-46.800;2023-04-24T11:37:39;3.78;;;1.45;;
49590;SDS011;35496;-21.974;-46.800;2023-04-24T11:40:06;5.22;;;2.15;;
49590;SDS011;35496;-21.974;-46.800;2023-04-24T11:42:36;4.30;;;1.73;;
49590;SDS011;35496;-21.974;-46.800;2023-04-24T11:45:14;3.95;;;2.17;;
49590;SDS011;35496;-21.974;-46.800;2023-04-24T11:47:40;3.88;;;1.70;;
49590;SDS011;35496;-21.974;-46.800;2023-04-24T11:50:07;3.53;;;1.77;;
49590;SDS011;35496;-21.974;-46.800;2023-04-24T11:52:37;3.08;;;1.40;;
49590;SDS011;35496;-21.974;-46.800;2023-04-24T11:55:03;3.55;;;1.73;;
49590;SDS011;35496;-21.974;-46.800;2023-04-24T11:57:30;2.20;;;1.20;;
49590;SDS011;35496;-21.974;-46.800;2023-04-24T12:00:00;7.00;;;1.90;;
49590;SDS011;35496;-21.974;-46.800;2023-04-24T12:02:26;3.80;;;1.83;;
49590;SDS011;35496;-21.974;-46.800;2023-04-24T12:04:53;11.32;;;2.55;;
49590;SDS011;35496;-21.974;-46.800;2023-04-24T12:07:19;2.05;;;1.08;;
49590;SDS011;35496;-21.974;-46.800;2023-04-24T12:12:12;3.28;;;1.85;;
49590;SDS011;35496;-21.974;-46.800;2023-04-24T12:14:45;2.38;;;1.95;;
49590;SDS011;35496;-21.974;-46.800;2023-04-24T12:17:12;8.57;;;2.85;;
49590;SDS011;35496;-21.974;-46.800;2023-04-24T12:19:44;1.70;;;1.30;;
49590;SDS011;35496;-21.974;-46.800;2023-04-24T12:22:10;4.90;;;1.73;;
49590;SDS011;35496;-21.974;-46.800;2023-04-24T12:24:54;7.97;;;2.45;;
49590;SDS011;35496;-21.974;-46.800;2023-04-24T12:27:22;1.50;;;1.40;;
49590;SDS011;35496;-21.974;-46.800;2023-04-24T12:29:52;1.15;;;1.05;;
49590;SDS011;35496;-21.974;-46.800;2023-04-24T12:32:18;2.63;;;1.35;;
49590;SDS011;35496;-21.974;-46.800;2023-04-24T12:34:44;2.42;;;1.67;;
49590;SDS011;35496;-21.974;-46.800;2023-04-24T12:37:11;3.38;;;1.38;;
49590;SDS011;35496;-21.974;-46.800;2023-04-24T12:39:37;6.25;;;1.60;;
49590;SDS011;35496;-21.974;-46.800;2023-04-24T12:42:03;2.72;;;1.25;;
49590;SDS011;35496;-21.974;-46.800;2023-04-24T12:44:30;4.10;;;1.27;;
49590;SDS011;35496;-21.974;-46.800;2023-04-24T12:46:57;3.05;;;1.30;;
49590;SDS011;35496;-21.974;-46.800;2023-04-24T12:49:23;9.10;;;1.88;;
49590;SDS011;35496;-21.974;-46.800;2023-04-24T12:51:49;3.00;;;1.13;;
49590;SDS011;35496;-21.974;-46.800;2023-04-24T12:54:15;2.10;;;0.85;;
49590;SDS011;35496;-21.974;-46.800;2023-04-24T12:56:41;2.28;;;1.17;;
49590;SDS011;35496;-21.974;-46.800;2023-04-24T12:59:07;1.60;;;0.93;;
49590;SDS011;35496;-21.974;-46.800;2023-04-24T13:01:33;1.20;;;0.90;;
49590;SDS011;35496;-21.974;-46.800;2023-04-24T13:04:00;1.33;;;0.95;;
49590;SDS011;35496;-21.974;-46.800;2023-04-24T13:06:26;11.65;;;0.95;;
49590;SDS011;35496;-21.974;-46.800;2023-04-24T13:08:52;1.55;;;0.88;;
49590;SDS011;35496;-21.974;-46.800;2023-04-24T13:11:20;1.60;;;0.82;;
49590;SDS011;35496;-21.974;-46.800;2023-04-24T13:13:47;1.13;;;0.90;;
49590;SDS011;35496;-21.974;-46.800;2023-04-24T13:16:13;1.45;;;1.15;;
49590;SDS011;35496;-21.974;-46.800;2023-04-24T13:18:39;2.20;;;1.17;;
49590;SDS011;35496;-21.974;-46.800;2023-04-24T13:21:05;3.10;;;1.20;;
49590;SDS011;35496;-21.974;-46.800;2023-04-24T13:23:31;3.75;;;1.77;;
49590;SDS011;35496;-21.974;-46.800;2023-04-24T13:25:57;4.05;;;1.10;;
49590;SDS011;35496;-21.974;-46.800;2023-04-24T13:28:26;1.60;;;0.80;;
49590;SDS011;35496;-21.974;-46.800;2023-04-24T13:30:53;0.93;;;0.60;;
49590;SDS011;35496;-21.974;-46.800;2023-04-24T13:33:20;1.35;;;1.00;;
49590;SDS011;35496;-21.974;-46.800;2023-04-24T13:35:46;1.20;;;1.02;;
49590;SDS011;35496;-21.974;-46.800;2023-04-24T13:38:12;3.88;;;1.38;;
49590;SDS011;35496;-21.974;-46.800;2023-04-24T13:40:38;1.98;;;0.95;;
49590;SDS011;35496;-21.974;-46.800;2023-04-24T13:43:04;1.23;;;0.90;;
49590;SDS011;35496;-21.974;-46.800;2023-04-24T13:45:30;2.20;;;0.90;;
49590;SDS011;35496;-21.974;-46.800;2023-04-24T13:47:56;2.78;;;1.52;;
49590;SDS011;35496;-21.974;-46.800;2023-04-24T13:50:22;2.38;;;1.45;;
49590;SDS011;35496;-21.974;-46.800;2023-04-24T13:52:48;1.65;;;0.70;;
49590;SDS011;35496;-21.974;-46.800;2023-04-24T13:55:14;1.80;;;0.90;;
49590;SDS011;35496;-21.974;-46.800;2023-04-24T13:57:40;2.05;;;0.73;;
49590;SDS011;35496;-21.974;-46.800;2023-04-24T14:00:06;1.00;;;1.00;;
49590;SDS011;35496;-21.974;-46.800;2023-04-24T14:02:35;3.20;;;1.40;;
49590;SDS011;35496;-21.974;-46.800;2023-04-24T14:05:02;2.53;;;1.35;;
49590;SDS011;35496;-21.974;-46.800;2023-04-24T14:07:28;1.70;;;0.77;;
49590;SDS011;35496;-21.974;-46.800;2023-04-24T14:09:55;1.73;;;0.90;;
49590;SDS011;35496;-21.974;-46.800;2023-04-24T14:12:22;2.33;;;1.15;;
49590;SDS011;35496;-21.974;-46.800;2023-04-24T14:14:48;1.10;;;1.00;;
49590;SDS011;35496;-21.974;-46.800;2023-04-24T14:17:14;0.70;;;0.70;;